sensor_id;sensor_type;location;lat;lon;timestamp;temperature;humidity
24682;DHT22;12802;53.390;-2.328;2022-12-07T00:01:06;1.70;99.90
24682;DHT22;12802;53.390;-2.328;2022-12-07T00:03:33;1.60;99.90
24682;DHT22;12802;53.390;-2.328;2022-12-07T00:05:59;1.60;99.90
24682;DHT22;12802;53.390;-2.328;2022-12-07T00:08:26;1.50;99.90
24682;DHT22;12802;53.390;-2.328;2022-12-07T00:10:51;1.40;99.90
24682;DHT22;12802;53.390;-2.328;2022-12-07T00:13:17;1.20;99.90
24682;DHT22;12802;53.390;-2.328;2022-12-07T00:15:43;1.20;99.90
24682;DHT22;12802;53.390;-2.328;2022-12-07T00:18:09;1.20;99.90
24682;DHT22;12802;53.390;-2.328;2022-12-07T00:20:34;1.30;99.90
24682;DHT22;12802;53.390;-2.328;2022-12-07T00:23:00;1.50;99.90
24682;DHT22;12802;53.390;-2.328;2022-12-07T00:25:26;1.50;99.90
24682;DHT22;12802;53.390;-2.328;2022-12-07T00:27:53;1.50;99.90
24682;DHT22;12802;53.390;-2.328;2022-12-07T00:30:21;1.50;99.90
24682;DHT22;12802;53.390;-2.328;2022-12-07T00:32:47;1.60;99.90
24682;DHT22;12802;53.390;-2.328;2022-12-07T00:35:13;1.50;99.90
24682;DHT22;12802;53.390;-2.328;2022-12-07T00:37:39;1.50;99.90
24682;DHT22;12802;53.390;-2.328;2022-12-07T00:40:05;1.50;99.90
24682;DHT22;12802;53.390;-2.328;2022-12-07T00:42:31;1.40;99.90
24682;DHT22;12802;53.390;-2.328;2022-12-07T00:44:57;1.40;99.90
24682;DHT22;12802;53.390;-2.328;2022-12-07T00:47:23;1.40;99.90
24682;DHT22;12802;53.390;-2.328;2022-12-07T00:49:49;1.50;99.90
24682;DHT22;12802;53.390;-2.328;2022-12-07T00:52:14;1.50;99.90
24682;DHT22;12802;53.390;-2.328;2022-12-07T00:54:40;1.50;99.90
24682;DHT22;12802;53.390;-2.328;2022-12-07T00:57:06;1.50;99.90
24682;DHT22;12802;53.390;-2.328;2022-12-07T00:59:32;1.50;99.90
24682;DHT22;12802;53.390;-2.328;2022-12-07T01:01:57;1.50;99.90
24682;DHT22;12802;53.390;-2.328;2022-12-07T01:04:23;1.60;99.90
24682;DHT22;12802;53.390;-2.328;2022-12-07T01:06:49;1.60;99.90
24682;DHT22;12802;53.390;-2.328;2022-12-07T01:09:15;1.60;99.90
24682;DHT22;12802;53.390;-2.328;2022-12-07T01:11:41;1.70;99.90
24682;DHT22;12802;53.390;-2.328;2022-12-07T01:14:06;1.70;99.90
24682;DHT22;12802;53.390;-2.328;2022-12-07T01:16:32;1.80;99.90
24682;DHT22;12802;53.390;-2.328;2022-12-07T01:18:59;1.80;99.90
24682;DHT22;12802;53.390;-2.328;2022-12-07T01:21:28;1.70;99.90
24682;DHT22;12802;53.390;-2.328;2022-12-07T01:23:54;1.70;99.90
24682;DHT22;12802;53.390;-2.328;2022-12-07T01:26:22;1.70;99.90
24682;DHT22;12802;53.390;-2.328;2022-12-07T01:28:48;1.80;99.90
24682;DHT22;12802;53.390;-2.328;2022-12-07T01:31:17;1.90;99.90
24682;DHT22;12802;53.390;-2.328;2022-12-07T01:33:49;1.90;99.90
24682;DHT22;12802;53.390;-2.328;2022-12-07T01:36:24;2.00;99.90
24682;DHT22;12802;53.390;-2.328;2022-12-07T01:38:53;2.00;99.90
24682;DHT22;12802;53.390;-2.328;2022-12-07T01:41:22;2.10;99.90
24682;DHT22;12802;53.390;-2.328;2022-12-07T01:44:23;2.10;99.90
24682;DHT22;12802;53.390;-2.328;2022-12-07T01:46:55;2.10;99.90
24682;DHT22;12802;53.390;-2.328;2022-12-07T01:49:40;2.20;99.90
24682;DHT22;12802;53.390;-2.328;2022-12-07T01:52:16;2.20;99.90
24682;DHT22;12802;53.390;-2.328;2022-12-07T01:54:44;2.20;99.90
24682;DHT22;12802;53.390;-2.328;2022-12-07T01:57:12;2.10;99.90
24682;DHT22;12802;53.390;-2.328;2022-12-07T01:59:39;2.10;99.90
24682;DHT22;12802;53.390;-2.328;2022-12-07T02:02:10;2.10;99.90
24682;DHT22;12802;53.390;-2.328;2022-12-07T02:04:37;2.10;99.90
24682;DHT22;12802;53.390;-2.328;2022-12-07T02:07:04;2.10;99.90
24682;DHT22;12802;53.390;-2.328;2022-12-07T02:09:30;2.10;99.90
24682;DHT22;12802;53.390;-2.328;2022-12-07T02:11:56;2.00;99.90
24682;DHT22;12802;53.390;-2.328;2022-12-07T02:14:22;2.00;99.90
24682;DHT22;12802;53.390;-2.328;2022-12-07T02:17:12;1.90;99.90
24682;DHT22;12802;53.390;-2.328;2022-12-07T02:25:41;1.70;99.90
24682;DHT22;12802;53.390;-2.328;2022-12-07T02:28:35;1.60;99.90
24682;DHT22;12802;53.390;-2.328;2022-12-07T02:31:10;1.50;99.90
24682;DHT22;12802;53.390;-2.328;2022-12-07T02:34:00;1.50;99.90
24682;DHT22;12802;53.390;-2.328;2022-12-07T02:36:30;1.50;99.90
24682;DHT22;12802;53.390;-2.328;2022-12-07T02:41:42;1.40;99.90
24682;DHT22;12802;53.390;-2.328;2022-12-07T02:44:20;1.40;99.90
24682;DHT22;12802;53.390;-2.328;2022-12-07T02:46:53;1.40;99.90
24682;DHT22;12802;53.390;-2.328;2022-12-07T02:49:22;1.30;99.90
24682;DHT22;12802;53.390;-2.328;2022-12-07T02:51:48;1.20;99.90
24682;DHT22;12802;53.390;-2.328;2022-12-07T02:54:17;1.00;99.90
24682;DHT22;12802;53.390;-2.328;2022-12-07T03:04:59;0.70;99.90
24682;DHT22;12802;53.390;-2.328;2022-12-07T03:10:17;0.70;99.90
24682;DHT22;12802;53.390;-2.328;2022-12-07T03:15:46;0.80;99.90
24682;DHT22;12802;53.390;-2.328;2022-12-07T03:18:16;0.80;99.90
24682;DHT22;12802;53.390;-2.328;2022-12-07T03:20:43;0.70;99.90
24682;DHT22;12802;53.390;-2.328;2022-12-07T03:23:10;0.60;99.90
24682;DHT22;12802;53.390;-2.328;2022-12-07T03:25:43;0.60;99.90
24682;DHT22;12802;53.390;-2.328;2022-12-07T03:28:12;0.60;99.90
24682;DHT22;12802;53.390;-2.328;2022-12-07T03:31:14;0.50;99.90
24682;DHT22;12802;53.390;-2.328;2022-12-07T03:33:48;0.60;99.90
24682;DHT22;12802;53.390;-2.328;2022-12-07T03:39:32;0.60;99.90
24682;DHT22;12802;53.390;-2.328;2022-12-07T03:41:59;0.60;99.90
24682;DHT22;12802;53.390;-2.328;2022-12-07T03:44:26;0.60;99.90
24682;DHT22;12802;53.390;-2.328;2022-12-07T03:47:12;0.50;99.90
24682;DHT22;12802;53.390;-2.328;2022-12-07T03:50:56;0.60;99.90
24682;DHT22;12802;53.390;-2.328;2022-12-07T03:52:58;0.50;99.90
24682;DHT22;12802;53.390;-2.328;2022-12-07T03:55:36;0.50;99.90
24682;DHT22;12802;53.390;-2.328;2022-12-07T03:58:06;0.50;99.90
24682;DHT22;12802;53.390;-2.328;2022-12-07T04:00:32;0.40;99.90
24682;DHT22;12802;53.390;-2.328;2022-12-07T04:02:58;0.40;99.90
24682;DHT22;12802;53.390;-2.328;2022-12-07T04:05:25;0.40;99.90
24682;DHT22;12802;53.390;-2.328;2022-12-07T04:07:51;0.50;99.90
24682;DHT22;12802;53.390;-2.328;2022-12-07T04:10:16;0.50;99.90
24682;DHT22;12802;53.390;-2.328;2022-12-07T04:12:42;0.40;99.90
24682;DHT22;12802;53.390;-2.328;2022-12-07T04:15:09;0.20;99.90
24682;DHT22;12802;53.390;-2.328;2022-12-07T04:17:35;0.20;99.90
24682;DHT22;12802;53.390;-2.328;2022-12-07T04:20:00;0.00;99.90
24682;DHT22;12802;53.390;-2.328;2022-12-07T04:22:26;0.10;99.90
24682;DHT22;12802;53.390;-2.328;2022-12-07T04:24:52;0.00;99.90
24682;DHT22;12802;53.390;-2.328;2022-12-07T04:27:18;-0.20;99.90
24682;DHT22;12802;53.390;-2.328;2022-12-07T04:29:43;-0.20;99.90
24682;DHT22;12802;53.390;-2.328;2022-12-07T04:32:09;-0.30;99.90
24682;DHT22;12802;53.390;-2.328;2022-12-07T04:34:35;-0.30;99.90
24682;DHT22;12802;53.390;-2.328;2022-12-07T04:37:01;-0.20;99.90
24682;DHT22;12802;53.390;-2.328;2022-12-07T04:39:29;-0.10;99.90
24682;DHT22;12802;53.390;-2.328;2022-12-07T04:41:55;0.00;99.90
24682;DHT22;12802;53.390;-2.328;2022-12-07T04:44:22;0.10;99.90
24682;DHT22;12802;53.390;-2.328;2022-12-07T04:46:49;0.00;99.90
24682;DHT22;12802;53.390;-2.328;2022-12-07T04:49:16;0.10;99.90
24682;DHT22;12802;53.390;-2.328;2022-12-07T04:51:43;0.10;99.90
24682;DHT22;12802;53.390;-2.328;2022-12-07T04:54:10;0.00;99.90
24682;DHT22;12802;53.390;-2.328;2022-12-07T04:56:36;0.00;99.90
24682;DHT22;12802;53.390;-2.328;2022-12-07T04:59:03;0.10;99.90
24682;DHT22;12802;53.390;-2.328;2022-12-07T05:01:28;0.10;99.90
24682;DHT22;12802;53.390;-2.328;2022-12-07T05:03:54;0.00;99.90
24682;DHT22;12802;53.390;-2.328;2022-12-07T05:06:20;0.00;99.90
24682;DHT22;12802;53.390;-2.328;2022-12-07T05:08:46;-0.10;99.90
24682;DHT22;12802;53.390;-2.328;2022-12-07T05:11:12;-0.20;99.90
24682;DHT22;12802;53.390;-2.328;2022-12-07T05:13:59;-0.30;99.90
24682;DHT22;12802;53.390;-2.328;2022-12-07T05:16:25;-0.20;99.90
24682;DHT22;12802;53.390;-2.328;2022-12-07T05:18:51;-0.20;99.90
24682;DHT22;12802;53.390;-2.328;2022-12-07T05:21:16;-0.20;99.90
24682;DHT22;12802;53.390;-2.328;2022-12-07T05:23:42;-0.20;99.90
24682;DHT22;12802;53.390;-2.328;2022-12-07T05:26:08;-0.20;99.90
24682;DHT22;12802;53.390;-2.328;2022-12-07T05:28:33;-0.20;99.90
24682;DHT22;12802;53.390;-2.328;2022-12-07T05:30:59;-0.20;99.90
24682;DHT22;12802;53.390;-2.328;2022-12-07T05:33:25;-0.20;99.90
24682;DHT22;12802;53.390;-2.328;2022-12-07T05:35:51;-0.30;99.90
24682;DHT22;12802;53.390;-2.328;2022-12-07T05:38:16;-0.40;99.90
24682;DHT22;12802;53.390;-2.328;2022-12-07T05:40:42;-0.30;99.90
24682;DHT22;12802;53.390;-2.328;2022-12-07T05:43:08;-0.30;99.90
24682;DHT22;12802;53.390;-2.328;2022-12-07T05:45:34;-0.20;99.90
24682;DHT22;12802;53.390;-2.328;2022-12-07T05:47:59;-0.20;99.90
24682;DHT22;12802;53.390;-2.328;2022-12-07T05:50:25;-0.20;99.90
24682;DHT22;12802;53.390;-2.328;2022-12-07T05:52:59;-0.10;99.90
24682;DHT22;12802;53.390;-2.328;2022-12-07T05:55:25;-0.20;99.90
24682;DHT22;12802;53.390;-2.328;2022-12-07T05:57:51;-0.40;99.90
24682;DHT22;12802;53.390;-2.328;2022-12-07T06:00:35;-0.50;99.90
24682;DHT22;12802;53.390;-2.328;2022-12-07T06:03:01;-0.60;99.90
24682;DHT22;12802;53.390;-2.328;2022-12-07T06:05:26;-0.70;99.90
24682;DHT22;12802;53.390;-2.328;2022-12-07T06:07:52;-0.50;99.90
24682;DHT22;12802;53.390;-2.328;2022-12-07T06:10:18;-0.50;99.90
24682;DHT22;12802;53.390;-2.328;2022-12-07T06:12:43;-0.50;99.90
24682;DHT22;12802;53.390;-2.328;2022-12-07T06:15:11;-0.50;99.90
24682;DHT22;12802;53.390;-2.328;2022-12-07T06:17:38;-0.40;99.90
24682;DHT22;12802;53.390;-2.328;2022-12-07T06:20:05;-0.30;99.90
24682;DHT22;12802;53.390;-2.328;2022-12-07T06:22:30;-0.30;99.90
24682;DHT22;12802;53.390;-2.328;2022-12-07T06:24:56;-0.20;99.90
24682;DHT22;12802;53.390;-2.328;2022-12-07T06:27:22;-0.20;99.90
24682;DHT22;12802;53.390;-2.328;2022-12-07T06:29:47;-0.20;99.90
24682;DHT22;12802;53.390;-2.328;2022-12-07T06:32:13;-0.10;99.90
24682;DHT22;12802;53.390;-2.328;2022-12-07T06:34:39;-0.10;99.90
24682;DHT22;12802;53.390;-2.328;2022-12-07T06:37:05;-0.20;99.90
24682;DHT22;12802;53.390;-2.328;2022-12-07T06:39:31;-0.20;99.90
24682;DHT22;12802;53.390;-2.328;2022-12-07T06:41:57;-0.10;99.90
24682;DHT22;12802;53.390;-2.328;2022-12-07T06:44:23;0.00;99.90
24682;DHT22;12802;53.390;-2.328;2022-12-07T06:46:50;-0.10;99.90
24682;DHT22;12802;53.390;-2.328;2022-12-07T06:49:15;-0.20;99.90
24682;DHT22;12802;53.390;-2.328;2022-12-07T06:51:42;-0.20;99.90
24682;DHT22;12802;53.390;-2.328;2022-12-07T06:54:12;-0.10;99.90
24682;DHT22;12802;53.390;-2.328;2022-12-07T06:56:39;0.00;99.90
24682;DHT22;12802;53.390;-2.328;2022-12-07T06:59:06;0.00;99.90
24682;DHT22;12802;53.390;-2.328;2022-12-07T07:01:33;0.10;99.90
24682;DHT22;12802;53.390;-2.328;2022-12-07T07:03:59;0.10;99.90
24682;DHT22;12802;53.390;-2.328;2022-12-07T07:06:25;0.10;99.90
24682;DHT22;12802;53.390;-2.328;2022-12-07T07:08:50;0.00;99.90
24682;DHT22;12802;53.390;-2.328;2022-12-07T07:11:17;-0.10;99.90
24682;DHT22;12802;53.390;-2.328;2022-12-07T07:13:42;-0.20;99.90
24682;DHT22;12802;53.390;-2.328;2022-12-07T07:16:08;-0.40;99.90
24682;DHT22;12802;53.390;-2.328;2022-12-07T07:18:34;-0.50;99.90
24682;DHT22;12802;53.390;-2.328;2022-12-07T07:21:03;-0.50;99.90
24682;DHT22;12802;53.390;-2.328;2022-12-07T07:23:29;-0.60;99.90
24682;DHT22;12802;53.390;-2.328;2022-12-07T07:25:55;-0.40;99.90
24682;DHT22;12802;53.390;-2.328;2022-12-07T07:28:20;-0.30;99.90
24682;DHT22;12802;53.390;-2.328;2022-12-07T07:30:46;-0.30;99.90
24682;DHT22;12802;53.390;-2.328;2022-12-07T07:33:13;-0.30;99.90
24682;DHT22;12802;53.390;-2.328;2022-12-07T07:35:39;-0.30;99.90
24682;DHT22;12802;53.390;-2.328;2022-12-07T07:38:06;-0.30;99.90
24682;DHT22;12802;53.390;-2.328;2022-12-07T07:40:32;-0.30;99.90
24682;DHT22;12802;53.390;-2.328;2022-12-07T07:42:58;-0.30;99.90
24682;DHT22;12802;53.390;-2.328;2022-12-07T07:45:25;-0.30;99.90
24682;DHT22;12802;53.390;-2.328;2022-12-07T07:47:51;-0.30;99.90
24682;DHT22;12802;53.390;-2.328;2022-12-07T07:50:18;-0.20;99.90
24682;DHT22;12802;53.390;-2.328;2022-12-07T07:52:44;-0.20;99.90
24682;DHT22;12802;53.390;-2.328;2022-12-07T07:55:10;-0.20;99.90
24682;DHT22;12802;53.390;-2.328;2022-12-07T07:57:37;-0.30;99.90
24682;DHT22;12802;53.390;-2.328;2022-12-07T08:00:13;-0.40;99.90
24682;DHT22;12802;53.390;-2.328;2022-12-07T08:02:40;-0.40;99.90
24682;DHT22;12802;53.390;-2.328;2022-12-07T08:05:06;-0.30;99.90
24682;DHT22;12802;53.390;-2.328;2022-12-07T08:07:32;-0.20;99.90
24682;DHT22;12802;53.390;-2.328;2022-12-07T08:09:58;-0.30;99.90
24682;DHT22;12802;53.390;-2.328;2022-12-07T08:12:24;-0.20;99.90
24682;DHT22;12802;53.390;-2.328;2022-12-07T08:14:49;-0.10;99.90
24682;DHT22;12802;53.390;-2.328;2022-12-07T08:17:15;-0.10;99.90
24682;DHT22;12802;53.390;-2.328;2022-12-07T08:19:41;-0.10;99.90
24682;DHT22;12802;53.390;-2.328;2022-12-07T08:22:07;-0.10;99.90
24682;DHT22;12802;53.390;-2.328;2022-12-07T08:24:36;-0.10;99.90
24682;DHT22;12802;53.390;-2.328;2022-12-07T08:27:02;-0.10;99.90
24682;DHT22;12802;53.390;-2.328;2022-12-07T08:29:28;-0.10;99.90
24682;DHT22;12802;53.390;-2.328;2022-12-07T08:31:53;-0.10;99.90
24682;DHT22;12802;53.390;-2.328;2022-12-07T08:34:19;0.00;99.90
24682;DHT22;12802;53.390;-2.328;2022-12-07T08:36:45;0.00;99.90
24682;DHT22;12802;53.390;-2.328;2022-12-07T08:39:11;0.00;99.90
24682;DHT22;12802;53.390;-2.328;2022-12-07T08:41:37;-0.10;99.90
24682;DHT22;12802;53.390;-2.328;2022-12-07T08:44:03;-0.10;99.90
24682;DHT22;12802;53.390;-2.328;2022-12-07T08:49:14;0.00;99.90
24682;DHT22;12802;53.390;-2.328;2022-12-07T08:51:41;-0.10;99.90
24682;DHT22;12802;53.390;-2.328;2022-12-07T08:54:11;-0.20;99.90
24682;DHT22;12802;53.390;-2.328;2022-12-07T08:56:39;-0.20;99.90
24682;DHT22;12802;53.390;-2.328;2022-12-07T08:59:05;-0.10;99.90
24682;DHT22;12802;53.390;-2.328;2022-12-07T09:01:31;0.00;99.90
24682;DHT22;12802;53.390;-2.328;2022-12-07T09:03:57;0.00;99.90
24682;DHT22;12802;53.390;-2.328;2022-12-07T09:06:23;0.00;99.90
24682;DHT22;12802;53.390;-2.328;2022-12-07T09:08:53;0.00;99.90
24682;DHT22;12802;53.390;-2.328;2022-12-07T09:11:20;0.00;99.90
24682;DHT22;12802;53.390;-2.328;2022-12-07T09:13:46;0.00;99.90
24682;DHT22;12802;53.390;-2.328;2022-12-07T09:16:11;0.00;99.90
24682;DHT22;12802;53.390;-2.328;2022-12-07T09:18:37;0.10;99.90
24682;DHT22;12802;53.390;-2.328;2022-12-07T09:21:04;0.10;99.90
24682;DHT22;12802;53.390;-2.328;2022-12-07T09:23:30;-0.10;99.90
24682;DHT22;12802;53.390;-2.328;2022-12-07T09:25:59;-0.20;99.90
24682;DHT22;12802;53.390;-2.328;2022-12-07T09:28:26;-0.20;99.90
24682;DHT22;12802;53.390;-2.328;2022-12-07T09:30:52;-0.20;99.90
24682;DHT22;12802;53.390;-2.328;2022-12-07T09:33:18;-0.10;99.90
24682;DHT22;12802;53.390;-2.328;2022-12-07T09:35:48;-0.20;99.90
24682;DHT22;12802;53.390;-2.328;2022-12-07T09:38:14;-0.10;99.90
24682;DHT22;12802;53.390;-2.328;2022-12-07T09:40:40;0.00;99.90
24682;DHT22;12802;53.390;-2.328;2022-12-07T09:43:14;0.20;99.90
24682;DHT22;12802;53.390;-2.328;2022-12-07T09:45:40;0.30;99.90
24682;DHT22;12802;53.390;-2.328;2022-12-07T09:48:17;0.30;99.90
24682;DHT22;12802;53.390;-2.328;2022-12-07T09:50:44;0.40;99.90
24682;DHT22;12802;53.390;-2.328;2022-12-07T09:53:15;0.40;99.90
24682;DHT22;12802;53.390;-2.328;2022-12-07T09:55:45;0.40;99.90
24682;DHT22;12802;53.390;-2.328;2022-12-07T09:58:19;0.60;99.90
24682;DHT22;12802;53.390;-2.328;2022-12-07T10:00:46;0.70;99.90
24682;DHT22;12802;53.390;-2.328;2022-12-07T10:03:12;0.70;99.90
24682;DHT22;12802;53.390;-2.328;2022-12-07T10:05:45;0.80;99.90
24682;DHT22;12802;53.390;-2.328;2022-12-07T10:08:12;1.00;99.90
24682;DHT22;12802;53.390;-2.328;2022-12-07T10:10:39;1.00;99.90
24682;DHT22;12802;53.390;-2.328;2022-12-07T10:13:11;0.90;99.90
24682;DHT22;12802;53.390;-2.328;2022-12-07T10:15:54;1.10;99.90
24682;DHT22;12802;53.390;-2.328;2022-12-07T10:23:36;2.00;99.90
24682;DHT22;12802;53.390;-2.328;2022-12-07T10:26:26;2.20;99.90
24682;DHT22;12802;53.390;-2.328;2022-12-07T10:29:42;2.40;99.90
24682;DHT22;12802;53.390;-2.328;2022-12-07T10:34:45;2.70;99.90
24682;DHT22;12802;53.390;-2.328;2022-12-07T10:37:20;2.80;99.90
24682;DHT22;12802;53.390;-2.328;2022-12-07T10:39:58;2.70;99.90
24682;DHT22;12802;53.390;-2.328;2022-12-07T10:42:29;2.60;99.90
24682;DHT22;12802;53.390;-2.328;2022-12-07T10:45:17;2.50;99.90
24682;DHT22;12802;53.390;-2.328;2022-12-07T10:47:51;2.40;99.90
24682;DHT22;12802;53.390;-2.328;2022-12-07T11:01:05;2.70;99.90
24682;DHT22;12802;53.390;-2.328;2022-12-07T11:06:16;2.60;99.90
24682;DHT22;12802;53.390;-2.328;2022-12-07T11:11:35;2.50;99.90
24682;DHT22;12802;53.390;-2.328;2022-12-07T11:15:13;2.60;99.90
24682;DHT22;12802;53.390;-2.328;2022-12-07T11:22:46;2.90;99.90
24682;DHT22;12802;53.390;-2.328;2022-12-07T11:25:28;3.00;99.90
24682;DHT22;12802;53.390;-2.328;2022-12-07T11:28:16;3.10;99.90
24682;DHT22;12802;53.390;-2.328;2022-12-07T11:30:56;2.90;99.90
24682;DHT22;12802;53.390;-2.328;2022-12-07T11:33:44;2.90;99.90
24682;DHT22;12802;53.390;-2.328;2022-12-07T11:36:38;2.90;99.90
24682;DHT22;12802;53.390;-2.328;2022-12-07T11:41:48;3.10;99.90
24682;DHT22;12802;53.390;-2.328;2022-12-07T11:50:17;3.20;99.90
24682;DHT22;12802;53.390;-2.328;2022-12-07T12:00:52;3.20;99.90
24682;DHT22;12802;53.390;-2.328;2022-12-07T12:03:30;3.10;99.90
24682;DHT22;12802;53.390;-2.328;2022-12-07T12:05:58;3.10;99.90
24682;DHT22;12802;53.390;-2.328;2022-12-07T12:08:35;3.20;99.90
24682;DHT22;12802;53.390;-2.328;2022-12-07T12:23:13;3.10;99.90
24682;DHT22;12802;53.390;-2.328;2022-12-07T12:28:27;3.10;99.90
24682;DHT22;12802;53.390;-2.328;2022-12-07T12:31:15;3.00;99.90
24682;DHT22;12802;53.390;-2.328;2022-12-07T12:33:54;3.10;99.90
24682;DHT22;12802;53.390;-2.328;2022-12-07T12:46:58;3.20;99.90
24682;DHT22;12802;53.390;-2.328;2022-12-07T12:57:05;3.30;99.90
24682;DHT22;12802;53.390;-2.328;2022-12-07T13:15:44;3.50;99.90
24682;DHT22;12802;53.390;-2.328;2022-12-07T13:28:46;3.50;99.90
24682;DHT22;12802;53.390;-2.328;2022-12-07T13:33:52;3.60;99.90
24682;DHT22;12802;53.390;-2.328;2022-12-07T13:36:24;3.50;99.90
24682;DHT22;12802;53.390;-2.328;2022-12-07T13:39:00;3.60;99.90
24682;DHT22;12802;53.390;-2.328;2022-12-07T13:41:35;3.70;99.90
24682;DHT22;12802;53.390;-2.328;2022-12-07T13:44:22;3.70;99.90
24682;DHT22;12802;53.390;-2.328;2022-12-07T13:47:05;3.80;99.90
24682;DHT22;12802;53.390;-2.328;2022-12-07T13:49:36;3.80;99.90
24682;DHT22;12802;53.390;-2.328;2022-12-07T13:52:23;3.80;99.90
24682;DHT22;12802;53.390;-2.328;2022-12-07T13:57:22;3.80;99.90
24682;DHT22;12802;53.390;-2.328;2022-12-07T13:59:48;3.80;99.90
24682;DHT22;12802;53.390;-2.328;2022-12-07T14:02:28;3.80;99.90
24682;DHT22;12802;53.390;-2.328;2022-12-07T14:05:14;3.80;99.90
24682;DHT22;12802;53.390;-2.328;2022-12-07T14:10:40;3.80;99.90
24682;DHT22;12802;53.390;-2.328;2022-12-07T14:13:37;3.90;99.90
24682;DHT22;12802;53.390;-2.328;2022-12-07T14:16:34;3.90;99.90
24682;DHT22;12802;53.390;-2.328;2022-12-07T14:19:02;4.00;99.90
24682;DHT22;12802;53.390;-2.328;2022-12-07T14:21:31;4.00;99.90
24682;DHT22;12802;53.390;-2.328;2022-12-07T14:24:17;4.00;99.90
24682;DHT22;12802;53.390;-2.328;2022-12-07T14:26:48;4.00;99.90
24682;DHT22;12802;53.390;-2.328;2022-12-07T14:31:48;3.80;99.90
24682;DHT22;12802;53.390;-2.328;2022-12-07T14:34:14;3.90;99.90
24682;DHT22;12802;53.390;-2.328;2022-12-07T14:36:40;3.90;99.90
24682;DHT22;12802;53.390;-2.328;2022-12-07T14:39:05;3.90;99.90
24682;DHT22;12802;53.390;-2.328;2022-12-07T14:41:31;3.90;99.90
24682;DHT22;12802;53.390;-2.328;2022-12-07T14:44:16;3.90;99.90
24682;DHT22;12802;53.390;-2.328;2022-12-07T14:46:42;3.90;99.90
24682;DHT22;12802;53.390;-2.328;2022-12-07T14:49:07;3.90;99.90
24682;DHT22;12802;53.390;-2.328;2022-12-07T14:51:33;3.90;99.90
24682;DHT22;12802;53.390;-2.328;2022-12-07T14:54:01;3.90;99.90
24682;DHT22;12802;53.390;-2.328;2022-12-07T14:56:27;3.90;99.90
24682;DHT22;12802;53.390;-2.328;2022-12-07T14:58:53;3.90;99.90
24682;DHT22;12802;53.390;-2.328;2022-12-07T15:01:19;3.90;99.90
24682;DHT22;12802;53.390;-2.328;2022-12-07T15:03:44;3.90;99.90
24682;DHT22;12802;53.390;-2.328;2022-12-07T15:06:14;3.90;99.90
24682;DHT22;12802;53.390;-2.328;2022-12-07T15:08:40;3.90;99.90
24682;DHT22;12802;53.390;-2.328;2022-12-07T15:11:06;3.90;99.90
24682;DHT22;12802;53.390;-2.328;2022-12-07T15:13:31;3.80;99.90
24682;DHT22;12802;53.390;-2.328;2022-12-07T15:16:19;3.90;99.90
24682;DHT22;12802;53.390;-2.328;2022-12-07T15:18:45;3.80;99.90
24682;DHT22;12802;53.390;-2.328;2022-12-07T15:21:14;3.80;99.90
24682;DHT22;12802;53.390;-2.328;2022-12-07T15:23:40;3.80;99.90
24682;DHT22;12802;53.390;-2.328;2022-12-07T15:26:06;3.70;99.90
24682;DHT22;12802;53.390;-2.328;2022-12-07T15:28:34;3.80;99.90
24682;DHT22;12802;53.390;-2.328;2022-12-07T15:30:59;3.70;99.90
24682;DHT22;12802;53.390;-2.328;2022-12-07T15:33:25;3.70;99.90
24682;DHT22;12802;53.390;-2.328;2022-12-07T15:35:51;3.70;99.90
24682;DHT22;12802;53.390;-2.328;2022-12-07T15:38:16;3.60;99.90
24682;DHT22;12802;53.390;-2.328;2022-12-07T15:40:42;3.50;99.90
24682;DHT22;12802;53.390;-2.328;2022-12-07T15:43:11;3.40;99.90
24682;DHT22;12802;53.390;-2.328;2022-12-07T15:45:56;3.40;99.90
24682;DHT22;12802;53.390;-2.328;2022-12-07T15:48:22;3.40;99.90
24682;DHT22;12802;53.390;-2.328;2022-12-07T15:50:47;3.50;99.90
24682;DHT22;12802;53.390;-2.328;2022-12-07T15:53:13;3.50;99.90
24682;DHT22;12802;53.390;-2.328;2022-12-07T15:55:39;3.50;99.90
24682;DHT22;12802;53.390;-2.328;2022-12-07T15:58:06;3.50;99.90
24682;DHT22;12802;53.390;-2.328;2022-12-07T16:00:32;3.40;99.90
24682;DHT22;12802;53.390;-2.328;2022-12-07T16:02:57;3.30;99.90
24682;DHT22;12802;53.390;-2.328;2022-12-07T16:05:23;3.30;99.90
24682;DHT22;12802;53.390;-2.328;2022-12-07T16:07:49;3.30;99.90
24682;DHT22;12802;53.390;-2.328;2022-12-07T16:10:15;3.20;99.90
24682;DHT22;12802;53.390;-2.328;2022-12-07T16:12:40;3.20;99.90
24682;DHT22;12802;53.390;-2.328;2022-12-07T16:15:07;3.20;99.90
24682;DHT22;12802;53.390;-2.328;2022-12-07T16:17:32;3.10;99.90
24682;DHT22;12802;53.390;-2.328;2022-12-07T16:19:58;3.10;99.90
24682;DHT22;12802;53.390;-2.328;2022-12-07T16:22:24;3.10;99.90
24682;DHT22;12802;53.390;-2.328;2022-12-07T16:24:50;3.10;99.90
24682;DHT22;12802;53.390;-2.328;2022-12-07T16:27:16;3.10;99.90
24682;DHT22;12802;53.390;-2.328;2022-12-07T16:29:42;3.00;99.90
24682;DHT22;12802;53.390;-2.328;2022-12-07T16:32:07;3.00;99.90
24682;DHT22;12802;53.390;-2.328;2022-12-07T16:34:33;2.90;99.90
24682;DHT22;12802;53.390;-2.328;2022-12-07T16:36:59;2.90;99.90
24682;DHT22;12802;53.390;-2.328;2022-12-07T16:39:25;2.90;99.90
24682;DHT22;12802;53.390;-2.328;2022-12-07T16:41:50;2.80;99.90
24682;DHT22;12802;53.390;-2.328;2022-12-07T16:44:18;2.60;99.90
24682;DHT22;12802;53.390;-2.328;2022-12-07T16:46:43;2.50;99.90
24682;DHT22;12802;53.390;-2.328;2022-12-07T16:49:13;2.40;99.90
24682;DHT22;12802;53.390;-2.328;2022-12-07T16:51:39;2.30;99.90
24682;DHT22;12802;53.390;-2.328;2022-12-07T16:54:06;2.20;99.90
24682;DHT22;12802;53.390;-2.328;2022-12-07T16:56:34;2.20;99.90
24682;DHT22;12802;53.390;-2.328;2022-12-07T16:58:59;2.20;99.90
24682;DHT22;12802;53.390;-2.328;2022-12-07T17:01:25;2.30;99.90
24682;DHT22;12802;53.390;-2.328;2022-12-07T17:03:53;2.20;99.90
24682;DHT22;12802;53.390;-2.328;2022-12-07T17:06:25;2.10;99.90
24682;DHT22;12802;53.390;-2.328;2022-12-07T17:08:51;2.10;99.90
24682;DHT22;12802;53.390;-2.328;2022-12-07T17:11:20;2.10;99.90
24682;DHT22;12802;53.390;-2.328;2022-12-07T17:13:46;2.10;99.90
24682;DHT22;12802;53.390;-2.328;2022-12-07T17:16:31;2.00;99.90
24682;DHT22;12802;53.390;-2.328;2022-12-07T17:18:57;2.00;99.90
24682;DHT22;12802;53.390;-2.328;2022-12-07T17:21:23;2.00;99.90
24682;DHT22;12802;53.390;-2.328;2022-12-07T17:23:49;2.00;99.90
24682;DHT22;12802;53.390;-2.328;2022-12-07T17:26:19;2.00;99.90
24682;DHT22;12802;53.390;-2.328;2022-12-07T17:28:45;1.90;99.90
24682;DHT22;12802;53.390;-2.328;2022-12-07T17:31:14;1.90;99.90
24682;DHT22;12802;53.390;-2.328;2022-12-07T17:33:40;1.90;99.90
24682;DHT22;12802;53.390;-2.328;2022-12-07T17:36:10;1.80;99.90
24682;DHT22;12802;53.390;-2.328;2022-12-07T17:38:37;1.70;99.90
24682;DHT22;12802;53.390;-2.328;2022-12-07T17:41:16;1.60;99.90
24682;DHT22;12802;53.390;-2.328;2022-12-07T17:44:02;1.60;99.90
24682;DHT22;12802;53.390;-2.328;2022-12-07T17:46:29;1.50;99.90
24682;DHT22;12802;53.390;-2.328;2022-12-07T17:48:56;1.40;99.90
24682;DHT22;12802;53.390;-2.328;2022-12-07T17:51:21;1.40;99.90
24682;DHT22;12802;53.390;-2.328;2022-12-07T17:54:06;1.50;99.90
24682;DHT22;12802;53.390;-2.328;2022-12-07T17:56:32;1.50;99.90
24682;DHT22;12802;53.390;-2.328;2022-12-07T17:58:57;1.40;99.90
24682;DHT22;12802;53.390;-2.328;2022-12-07T18:01:23;1.50;99.90
24682;DHT22;12802;53.390;-2.328;2022-12-07T18:03:49;1.50;99.90
24682;DHT22;12802;53.390;-2.328;2022-12-07T18:06:15;1.40;99.90